Time;durP1;ratioP1;P1;durP2;ratioP2;P2;SDS_P1;SDS_P2;PMS_P1;PMS_P2;Temp;Humidity;BMP_temperature;BMP_pressure;BME280_temperature;BME280_humidity;BME280_pressure;Samples;Min_cycle;Max_cycle;Signal;HPM_P1;HPM_P2
2021/01/07 00:00:12;;;;;;;10.38;5.20;;;;;;;;;;4891128;29;20064;-69
2021/01/07 00:02:39;;;;;;;;;;;;;;;;;;4891231;29;20518;-69
2021/01/07 00:05:06;;;;;;;8.75;5.38;;;;;;;;;;4890442;29;19983;-69
2021/01/07 00:07:33;;;;;;;8.20;5.35;;;;;;;;;;4891581;29;20040;-69
2021/01/07 00:09:59;;;;;;;9.50;5.97;;;;;;;;;;4890893;29;20424;-69
2021/01/07 00:12:26;;;;;;;8.63;5.45;;;;;;;;;;4892537;29;20048;-69
2021/01/07 00:14:52;;;;;;;7.68;4.40;;;;;;;;;;4892205;29;20059;-69
2021/01/07 00:17:19;;;;;;;9.23;5.40;;;;;;;;;;4895466;29;20132;-69
2021/01/07 00:19:45;;;;;;;11.10;5.68;;;;;;;;;;4891071;29;20115;-69
2021/01/07 00:22:11;;;;;;;7.95;5.35;;;;;;;;;;4892525;29;20143;-69
2021/01/07 00:24:38;;;;;;;10.75;6.40;;;;;;;;;;4890204;29;20097;-69
2021/01/07 00:27:04;;;;;;;9.80;5.35;;;;;;;;;;4893218;29;20072;-69
2021/01/07 00:29:30;;;;;;;9.07;5.35;;;;;;;;;;4890406;29;20411;-69
2021/01/07 00:31:56;;;;;;;11.32;5.90;;;;;;;;;;4895705;29;20527;-69
2021/01/07 00:34:30;;;;;;;9.32;5.43;;;;;;;;;;4892583;29;20449;-71
2021/01/07 00:37:23;;;;;;;8.02;5.20;;;;;;;;;;4894017;29;20144;-72
2021/01/07 00:39:57;;;;;;;8.43;5.55;;;;;;;;;;4890560;29;20135;-70
2021/01/07 00:42:23;;;;;;;8.25;5.22;;;;;;;;;;4891940;29;20045;-70
2021/01/07 00:44:49;;;;;;;10.05;5.55;;;;;;;;;;4892088;29;20607;-70
2021/01/07 00:47:16;;;;;;;11.18;5.75;;;;;;;;;;4894562;29;20576;-70
2021/01/07 00:49:44;;;;;;;11.40;5.70;;;;;;;;;;4891806;29;20044;-70
2021/01/07 00:52:14;;;;;;;9.38;5.57;;;;;;;;;;4876818;29;20127;-70
2021/01/07 00:54:41;;;;;;;9.27;5.25;;;;;;;;;;4890856;29;20048;-70
2021/01/07 00:57:11;;;;;;;9.48;5.70;;;;;;;;;;4891842;29;20037;-70
2021/01/07 00:59:37;;;;;;;9.80;5.60;;;;;;;;;;4887884;29;20105;-70
2021/01/07 01:02:04;;;;;;;10.95;5.47;;;;;;;;;;4885269;29;20042;-70
2021/01/07 01:04:31;;;;;;;9.00;3.92;;;;;;;;;;4887708;29;20778;-70
2021/01/07 01:06:57;;;;;;;8.05;4.65;;;;;;;;;;4888316;29;20049;-70
2021/01/07 01:09:23;;;;;;;8.68;5.22;;;;;;;;;;4891842;29;20055;-69
2021/01/07 01:11:49;;;;;;;11.50;5.50;;;;;;;;;;4895417;29;20430;-70
2021/01/07 01:14:17;;;;;;;7.43;4.93;;;;;;;;;;4895255;29;20060;-70
2021/01/07 01:16:45;;;;;;;8.95;5.57;;;;;;;;;;4891420;29;20040;-70
2021/01/07 01:19:11;;;;;;;7.82;5.40;;;;;;;;;;4890369;29;20123;-71
2021/01/07 01:21:37;;;;;;;11.98;6.07;;;;;;;;;;4893612;29;20105;-70
2021/01/07 01:24:04;;;;;;;8.55;5.30;;;;;;;;;;4891803;29;20121;-70
2021/01/07 01:26:31;;;;;;;9.73;5.43;;;;;;;;;;4894751;29;20454;-70
2021/01/07 01:28:57;;;;;;;7.70;4.78;;;;;;;;;;4893422;29;20040;-70
2021/01/07 01:31:23;;;;;;;10.50;5.90;;;;;;;;;;4889917;29;20128;-70
2021/01/07 01:33:49;;;;;;;8.23;5.40;;;;;;;;;;4894206;29;20056;-70
2021/01/07 01:36:15;;;;;;;11.63;5.43;;;;;;;;;;4891219;29;20045;-70
2021/01/07 01:38:42;;;;;;;10.73;5.43;;;;;;;;;;4887003;29;20413;-70
2021/01/07 01:41:08;;;;;;;8.80;5.90;;;;;;;;;;4889296;29;20068;-70
2021/01/07 01:43:35;;;;;;;9.00;5.35;;;;;;;;;;4892883;29;20139;-70
2021/01/07 01:46:02;;;;;;;8.40;5.75;;;;;;;;;;4892144;29;20125;-70
2021/01/07 01:48:29;;;;;;;11.83;5.43;;;;;;;;;;4891736;29;20041;-70
2021/01/07 01:50:55;;;;;;;11.05;5.88;;;;;;;;;;4890131;29;20517;-70
2021/01/07 01:53:22;;;;;;;8.85;5.88;;;;;;;;;;4891497;29;20052;-70
2021/01/07 01:55:48;;;;;;;10.32;5.28;;;;;;;;;;4870222;29;20108;-70
2021/01/07 01:58:16;;;;;;;11.98;5.43;;;;;;;;;;4891246;29;20506;-70
2021/01/07 02:00:42;;;;;;;8.90;5.35;;;;;;;;;;4888119;29;20126;-70
2021/01/07 02:03:08;;;;;;;8.23;5.63;;;;;;;;;;4887709;29;20155;-70
2021/01/07 02:05:35;;;;;;;8.05;5.03;;;;;;;;;;4889966;29;20045;-71
2021/01/07 02:08:06;;;;;;;7.83;5.13;;;;;;;;;;4886302;29;20054;-70
2021/01/07 02:10:33;;;;;;;7.43;4.78;;;;;;;;;;4895355;29;20060;-70
2021/01/07 02:13:01;;;;;;;9.73;3.95;;;;;;;;;;4896928;29;20069;-70
2021/01/07 02:15:27;;;;;;;9.75;5.10;;;;;;;;;;4888447;29;20045;-70
2021/01/07 02:17:55;;;;;;;8.18;5.10;;;;;;;;;;4898335;29;20088;-70
2021/01/07 02:20:25;;;;;;;9.25;5.15;;;;;;;;;;4890247;29;20045;-70
2021/01/07 02:22:53;;;;;;;8.07;4.93;;;;;;;;;;4891295;29;20693;-70
2021/01/07 02:25:26;;;;;;;9.40;5.18;;;;;;;;;;4886839;29;20127;-70
2021/01/07 02:27:53;;;;;;;7.57;4.53;;;;;;;;;;4894320;29;20044;-70
2021/01/07 02:30:19;;;;;;;8.10;5.03;;;;;;;;;;4894435;29;20045;-70
2021/01/07 02:32:46;;;;;;;10.57;5.20;;;;;;;;;;4895224;29;20077;-70
2021/01/07 02:35:13;;;;;;;7.85;4.82;;;;;;;;;;4896977;29;20044;-70
2021/01/07 02:37:41;;;;;;;8.18;4.90;;;;;;;;;;4887247;29;20057;-70
2021/01/07 02:40:08;;;;;;;6.78;5.10;;;;;;;;;;4896094;29;20051;-70
2021/01/07 02:42:34;;;;;;;8.50;5.05;;;;;;;;;;4889855;29;20133;-70
2021/01/07 02:45:01;;;;;;;8.13;5.22;;;;;;;;;;4893655;29;20064;-70
2021/01/07 02:47:27;;;;;;;8.77;4.97;;;;;;;;;;4892097;29;20045;-70
2021/01/07 02:49:53;;;;;;;7.60;5.00;;;;;;;;;;4889884;29;20485;-70
2021/01/07 02:52:20;;;;;;;10.23;5.60;;;;;;;;;;4897609;29;20056;-70
2021/01/07 02:54:46;;;;;;;9.23;4.45;;;;;;;;;;4892658;29;20113;-71
2021/01/07 02:57:12;;;;;;;6.47;4.53;;;;;;;;;;4893837;29;20037;-70
2021/01/07 02:59:38;;;;;;;7.78;4.22;;;;;;;;;;4896101;29;20053;-70
2021/01/07 03:02:04;;;;;;;6.85;4.57;;;;;;;;;;4897242;29;20258;-70
2021/01/07 03:04:31;;;;;;;7.70;4.75;;;;;;;;;;4891919;29;20049;-71
2021/01/07 03:06:57;;;;;;;6.15;4.40;;;;;;;;;;4894677;29;20072;-70
2021/01/07 03:09:23;;;;;;;7.63;4.72;;;;;;;;;;4888556;29;20393;-70
2021/01/07 03:11:49;;;;;;;8.98;4.38;;;;;;;;;;4895490;29;20037;-70
2021/01/07 03:14:15;;;;;;;5.15;3.83;;;;;;;;;;4894870;29;20388;-70
2021/01/07 03:16:42;;;;;;;7.35;4.35;;;;;;;;;;4891064;29;20112;-70
2021/01/07 03:19:08;;;;;;;6.85;4.75;;;;;;;;;;4896586;29;20053;-70
2021/01/07 03:21:35;;;;;;;10.07;4.38;;;;;;;;;;4893132;29;20053;-70
2021/01/07 03:24:01;;;;;;;9.00;4.30;;;;;;;;;;4894850;29;20057;-70
2021/01/07 03:26:27;;;;;;;7.15;4.18;;;;;;;;;;4890405;29;20037;-70
2021/01/07 03:28:53;;;;;;;7.40;4.60;;;;;;;;;;4895446;29;20048;-70
2021/01/07 03:31:21;;;;;;;7.10;4.40;;;;;;;;;;4894063;29;20044;-70
2021/01/07 03:33:47;;;;;;;8.02;4.15;;;;;;;;;;4896126;29;20100;-70
2021/01/07 03:36:14;;;;;;;7.15;4.47;;;;;;;;;;4879455;29;20808;-70
2021/01/07 03:38:40;;;;;;;9.25;4.40;;;;;;;;;;4887879;29;20045;-70
2021/01/07 03:41:06;;;;;;;7.40;4.72;;;;;;;;;;4892928;29;20063;-70
2021/01/07 03:43:32;;;;;;;7.80;4.70;;;;;;;;;;4888131;29;20052;-70
2021/01/07 03:45:58;;;;;;;6.85;4.40;;;;;;;;;;4894263;29;20557;-70
2021/01/07 03:48:25;;;;;;;10.82;3.72;;;;;;;;;;4891899;29;20088;-70
2021/01/07 03:50:51;;;;;;;6.95;4.63;;;;;;;;;;4891519;29;20509;-70
2021/01/07 03:53:17;;;;;;;10.00;5.38;;;;;;;;;;4894116;29;20041;-70
2021/01/07 03:55:44;;;;;;;7.15;4.70;;;;;;;;;;4890041;29;20131;-70
2021/01/07 03:58:10;;;;;;;6.78;4.40;;;;;;;;;;4892589;29;20497;-70
2021/01/07 04:00:37;;;;;;;9.95;4.90;;;;;;;;;;4894076;29;20049;-70
2021/01/07 04:03:04;;;;;;;8.02;4.93;;;;;;;;;;4891942;29;20112;-70
2021/01/07 04:05:30;;;;;;;8.90;4.55;;;;;;;;;;4892596;29;20064;-70
2021/01/07 04:07:57;;;;;;;9.45;4.93;;;;;;;;;;4889631;29;20135;-70
2021/01/07 04:10:23;;;;;;;9.38;5.00;;;;;;;;;;4895792;29;20116;-70
2021/01/07 04:12:49;;;;;;;10.55;5.78;;;;;;;;;;4893232;29;20052;-70
2021/01/07 04:15:15;;;;;;;9.52;5.03;;;;;;;;;;4895770;29;20047;-70
2021/01/07 04:17:42;;;;;;;7.65;5.13;;;;;;;;;;4885876;29;20044;-70
2021/01/07 04:20:08;;;;;;;12.48;6.10;;;;;;;;;;4890315;29;20076;-70
2021/01/07 04:22:41;;;;;;;9.32;5.75;;;;;;;;;;4890273;29;20652;-70
2021/01/07 04:25:08;;;;;;;7.05;5.22;;;;;;;;;;4891187;29;20056;-70
2021/01/07 04:27:34;;;;;;;9.05;5.55;;;;;;;;;;4889852;29;20127;-70
2021/01/07 04:30:02;;;;;;;10.48;5.38;;;;;;;;;;4895631;29;20060;-70
2021/01/07 04:32:32;;;;;;;9.65;5.63;;;;;;;;;;4883276;29;20064;-70
2021/01/07 04:34:59;;;;;;;8.65;5.53;;;;;;;;;;4894150;29;20139;-70
2021/01/07 04:37:25;;;;;;;8.88;5.75;;;;;;;;;;4895178;29;20468;-70
2021/01/07 04:39:51;;;;;;;10.60;6.22;;;;;;;;;;4892676;29;20052;-70
2021/01/07 04:42:18;;;;;;;7.38;4.47;;;;;;;;;;4890641;29;20136;-70
2021/01/07 04:44:44;;;;;;;10.88;5.75;;;;;;;;;;4891002;29;20056;-70
2021/01/07 04:47:11;;;;;;;10.18;5.68;;;;;;;;;;4895426;29;20040;-71
2021/01/07 04:49:38;;;;;;;8.67;5.30;;;;;;;;;;4891191;29;20072;-70
2021/01/07 04:52:04;;;;;;;6.55;3.90;;;;;;;;;;4891711;29;20425;-70
2021/01/07 04:54:30;;;;;;;13.18;5.85;;;;;;;;;;4880714;29;20040;-70
2021/01/07 04:56:57;;;;;;;9.57;6.20;;;;;;;;;;4889752;29;20124;-70
2021/01/07 04:59:24;;;;;;;8.20;5.32;;;;;;;;;;4889159;29;20052;-70
2021/01/07 05:01:50;;;;;;;9.20;5.75;;;;;;;;;;4893546;29;20824;-70
2021/01/07 05:04:17;;;;;;;10.18;5.85;;;;;;;;;;4893776;29;20080;-70
2021/01/07 05:06:47;;;;;;;10.33;5.47;;;;;;;;;;4891233;29;20052;-70
2021/01/07 05:09:13;;;;;;;9.02;5.53;;;;;;;;;;4888642;29;20336;-70
2021/01/07 05:11:40;;;;;;;10.95;6.10;;;;;;;;;;4890644;29;20131;-70
2021/01/07 05:14:08;;;;;;;8.60;5.43;;;;;;;;;;4891025;29;20044;-70
2021/01/07 05:16:35;;;;;;;10.55;6.30;;;;;;;;;;4891439;29;20044;-70
2021/01/07 05:19:03;;;;;;;8.63;5.85;;;;;;;;;;4885707;29;20063;-70
2021/01/07 05:21:29;;;;;;;10.38;5.90;;;;;;;;;;4886750;29;20047;-70
2021/01/07 05:23:56;;;;;;;11.90;5.95;;;;;;;;;;4886986;29;20055;-70
2021/01/07 05:26:23;;;;;;;10.02;6.47;;;;;;;;;;4875255;29;20044;-70
2021/01/07 05:28:50;;;;;;;11.65;6.55;;;;;;;;;;4889258;29;20131;-70
2021/01/07 05:31:19;;;;;;;13.18;6.32;;;;;;;;;;4888155;29;20626;-70
2021/01/07 05:33:45;;;;;;;10.15;6.50;;;;;;;;;;4886070;29;20056;-71
2021/01/07 05:36:16;;;;;;;9.98;4.88;;;;;;;;;;4883771;29;20076;-70
2021/01/07 05:38:42;;;;;;;11.02;6.35;;;;;;;;;;4884409;29;20056;-70
2021/01/07 05:41:12;;;;;;;12.10;6.32;;;;;;;;;;4898068;29;20493;-70
2021/01/07 05:43:38;;;;;;;11.13;6.68;;;;;;;;;;4894595;29;20052;-70
2021/01/07 05:46:06;;;;;;;9.73;6.30;;;;;;;;;;4895185;29;20044;-69
2021/01/07 05:48:32;;;;;;;10.48;6.22;;;;;;;;;;4893657;29;20048;-70
2021/01/07 05:51:02;;;;;;;10.73;6.35;;;;;;;;;;4893087;29;20509;-70
2021/01/07 05:53:28;;;;;;;11.07;7.03;;;;;;;;;;4896097;29;20081;-70
2021/01/07 05:55:55;;;;;;;10.93;6.18;;;;;;;;;;4896909;29;20541;-70
2021/01/07 05:58:22;;;;;;;8.95;4.93;;;;;;;;;;4898457;29;20100;-70
2021/01/07 06:00:49;;;;;;;14.13;7.20;;;;;;;;;;4896886;29;20048;-70
2021/01/07 06:03:17;;;;;;;9.18;5.97;;;;;;;;;;4899891;29;20056;-70
2021/01/07 06:05:45;;;;;;;12.20;5.82;;;;;;;;;;4898114;29;20051;-70
2021/01/07 06:08:15;;;;;;;11.65;5.88;;;;;;;;;;4901673;29;20056;-70
2021/01/07 06:10:44;;;;;;;9.70;6.05;;;;;;;;;;4895142;29;20384;-70
2021/01/07 06:13:10;;;;;;;10.18;6.25;;;;;;;;;;4896869;29;20049;-70
2021/01/07 06:15:36;;;;;;;9.30;5.75;;;;;;;;;;4889024;29;20060;-70
2021/01/07 06:18:04;;;;;;;8.90;5.82;;;;;;;;;;4889948;29;20055;-70
2021/01/07 06:20:32;;;;;;;8.88;5.25;;;;;;;;;;4891082;29;20051;-70
2021/01/07 06:22:58;;;;;;;11.77;6.05;;;;;;;;;;4894279;29;20053;-70
2021/01/07 06:25:24;;;;;;;10.02;5.60;;;;;;;;;;4906264;29;20083;-70
2021/01/07 06:27:51;;;;;;;9.75;6.22;;;;;;;;;;4898371;29;20053;-70
2021/01/07 06:30:18;;;;;;;12.23;6.72;;;;;;;;;;4897918;29;20087;-70
2021/01/07 06:32:45;;;;;;;10.15;5.53;;;;;;;;;;4899444;29;20089;-70
2021/01/07 06:35:11;;;;;;;11.48;5.93;;;;;;;;;;4893780;29;20052;-70
2021/01/07 06:37:42;;;;;;;9.40;6.13;;;;;;;;;;4896662;29;20441;-70
2021/01/07 06:40:10;;;;;;;13.07;6.35;;;;;;;;;;4895098;29;20459;-70
2021/01/07 06:42:37;;;;;;;12.55;6.25;;;;;;;;;;4895704;29;20056;-70
2021/01/07 06:45:04;;;;;;;12.30;6.68;;;;;;;;;;4896288;29;20135;-70
2021/01/07 06:47:31;;;;;;;11.27;6.80;;;;;;;;;;4897053;29;20044;-70
2021/01/07 06:49:58;;;;;;;12.65;7.45;;;;;;;;;;4889840;29;20116;-70
2021/01/07 06:52:25;;;;;;;11.10;6.15;;;;;;;;;;4889859;29;20497;-70
2021/01/07 06:54:55;;;;;;;10.70;6.07;;;;;;;;;;4895576;29;20072;-70
2021/01/07 06:57:21;;;;;;;12.35;6.50;;;;;;;;;;4892844;29;20044;-70
2021/01/07 06:59:58;;;;;;;10.10;6.17;;;;;;;;;;4893653;29;20536;-70
2021/01/07 07:02:24;;;;;;;12.32;6.78;;;;;;;;;;4890927;29;20059;-70
2021/01/07 07:05:10;;;;;;;11.57;6.40;;;;;;;;;;4894921;29;20052;-70
2021/01/07 07:07:37;;;;;;;10.00;6.18;;;;;;;;;;4899184;29;20576;-70
2021/01/07 07:10:18;;;;;;;12.27;6.82;;;;;;;;;;4897384;29;20044;-70
2021/01/07 07:12:49;;;;;;;9.18;6.18;;;;;;;;;;4897162;29;20104;-70
2021/01/07 07:15:16;;;;;;;11.45;6.53;;;;;;;;;;4893019;29;20383;-70
2021/01/07 07:17:45;;;;;;;7.30;4.50;;;;;;;;;;4893948;29;20052;-70
2021/01/07 07:20:18;;;;;;;12.82;6.53;;;;;;;;;;4895002;29;20073;-70
2021/01/07 07:22:44;;;;;;;14.35;6.25;;;;;;;;;;4896795;29;20064;-71
2021/01/07 07:25:11;;;;;;;10.00;6.67;;;;;;;;;;4886705;29;20049;-71
2021/01/07 07:28:04;;;;;;;9.85;6.22;;;;;;;;;;4889185;29;20076;-70
2021/01/07 07:30:33;;;;;;;9.38;5.53;;;;;;;;;;4894487;29;20537;-70
2021/01/07 07:32:59;;;;;;;11.23;5.82;;;;;;;;;;4894499;29;20048;-70
2021/01/07 07:35:27;;;;;;;13.40;6.43;;;;;;;;;;4891890;29;20060;-70
2021/01/07 07:37:54;;;;;;;9.68;5.97;;;;;;;;;;4894183;29;20108;-70
2021/01/07 07:40:41;;;;;;;10.57;5.95;;;;;;;;;;4895485;29;20136;-70
2021/01/07 07:43:07;;;;;;;11.52;6.28;;;;;;;;;;4897237;29;20049;-70
2021/01/07 07:45:39;;;;;;;8.93;5.82;;;;;;;;;;4893592;29;20143;-70
2021/01/07 07:48:08;;;;;;;10.10;5.95;;;;;;;;;;4877280;29;20060;-71
2021/01/07 07:50:35;;;;;;;9.90;6.40;;;;;;;;;;4893142;29;20041;-70
2021/01/07 07:53:04;;;;;;;9.70;5.65;;;;;;;;;;4885569;29;20040;-70
2021/01/07 07:55:37;;;;;;;9.73;5.53;;;;;;;;;;4889233;29;20053;-70
2021/01/07 07:58:14;;;;;;;9.43;5.90;;;;;;;;;;4892550;29;20045;-70
2021/01/07 08:00:50;;;;;;;11.30;5.75;;;;;;;;;;4892654;29;20112;-70
2021/01/07 08:03:23;;;;;;;8.50;5.45;;;;;;;;;;4903242;29;20063;-70
2021/01/07 08:05:49;;;;;;;12.80;5.85;;;;;;;;;;4892184;29;20068;-70
2021/01/07 08:08:26;;;;;;;9.43;5.68;;;;;;;;;;4890772;29;20504;-70
2021/01/07 08:10:53;;;;;;;11.48;6.25;;;;;;;;;;4889733;29;20058;-70
2021/01/07 08:13:20;;;;;;;7.07;4.88;;;;;;;;;;4897786;29;20054;-70
2021/01/07 08:15:47;;;;;;;13.00;5.55;;;;;;;;;;4895473;29;20144;-70
2021/01/07 08:18:13;;;;;;;;;;;;;;;;;;4896947;29;20040;-70
2021/01/07 08:20:39;;;;;;;9.55;5.60;;;;;;;;;;4894086;29;19930;-71
2021/01/07 08:23:10;;;;;;;8.13;5.18;;;;;;;;;;4896657;29;20063;-70
2021/01/07 08:25:40;;;;;;;10.43;5.40;;;;;;;;;;4893612;29;20053;-70
2021/01/07 08:28:35;;;;;;;8.60;5.50;;;;;;;;;;4889863;29;20045;-70
2021/01/07 08:31:05;;;;;;;7.90;5.50;;;;;;;;;;4870285;29;20061;-70
2021/01/07 08:33:31;;;;;;;8.82;5.43;;;;;;;;;;4894032;29;20100;-70
2021/01/07 08:36:01;;;;;;;10.65;5.90;;;;;;;;;;4892413;29;20168;-70
2021/01/07 08:38:28;;;;;;;9.63;4.93;;;;;;;;;;4900648;29;20099;-70
2021/01/07 08:41:27;;;;;;;13.07;5.43;;;;;;;;;;4892049;29;20041;-70
2021/01/07 08:43:54;;;;;;;6.38;4.28;;;;;;;;;;4862158;29;20049;-71
2021/01/07 08:46:22;;;;;;;7.75;5.18;;;;;;;;;;4886554;29;20493;-70
2021/01/07 08:49:06;;;;;;;8.32;5.60;;;;;;;;;;4893606;29;20634;-70
2021/01/07 08:51:38;;;;;;;7.20;5.20;;;;;;;;;;4891154;29;20133;-70
2021/01/07 08:54:11;;;;;;;7.22;5.07;;;;;;;;;;4890156;29;20045;-70
2021/01/07 08:56:39;;;;;;;7.53;4.57;;;;;;;;;;4893768;29;20044;-70
2021/01/07 08:59:28;;;;;;;8.93;4.70;;;;;;;;;;4890023;29;20132;-70
2021/01/07 09:01:55;;;;;;;8.38;5.13;;;;;;;;;;4889190;29;20044;-70
2021/01/07 09:04:21;;;;;;;;;;;;;;;;;;4893336;29;20052;-70
2021/01/07 09:06:54;;;;;;;9.43;5.10;;;;;;;;;;4899357;29;19962;-70
2021/01/07 09:09:20;;;;;;;7.47;5.15;;;;;;;;;;4894593;29;20469;-70
2021/01/07 09:11:47;;;;;;;7.03;4.60;;;;;;;;;;4893590;29;20501;-70
2021/01/07 09:14:13;;;;;;;6.93;5.13;;;;;;;;;;4892210;29;20080;-70
2021/01/07 09:16:39;;;;;;;5.85;4.55;;;;;;;;;;4895614;29;20040;-71
2021/01/07 09:19:08;;;;;;;7.20;5.10;;;;;;;;;;4879708;29;20063;-70
2021/01/07 09:21:35;;;;;;;8.63;4.80;;;;;;;;;;4893823;29;20052;-70
2021/01/07 09:24:01;;;;;;;11.48;5.65;;;;;;;;;;4886471;29;20079;-70
2021/01/07 09:26:28;;;;;;;8.00;5.18;;;;;;;;;;4891716;29;20075;-70
2021/01/07 09:28:54;;;;;;;7.53;4.47;;;;;;;;;;4894053;29;20048;-70
2021/01/07 09:31:21;;;;;;;7.38;5.05;;;;;;;;;;4888376;29;20041;-70
2021/01/07 09:33:47;;;;;;;7.95;5.18;;;;;;;;;;4895292;29;20119;-70
2021/01/07 09:36:13;;;;;;;7.28;4.72;;;;;;;;;;4891408;29;20052;-70
2021/01/07 09:38:39;;;;;;;7.55;4.78;;;;;;;;;;4900633;29;20049;-70
2021/01/07 09:41:05;;;;;;;8.85;5.03;;;;;;;;;;4896528;29;20100;-70
2021/01/07 09:43:33;;;;;;;7.18;4.60;;;;;;;;;;4890032;29;20069;-70
2021/01/07 09:45:59;;;;;;;7.18;4.45;;;;;;;;;;4894176;29;20396;-70
2021/01/07 09:48:25;;;;;;;7.60;4.55;;;;;;;;;;4891514;29;20049;-70
2021/01/07 09:50:51;;;;;;;7.53;5.03;;;;;;;;;;4893165;29;20055;-70
2021/01/07 09:53:20;;;;;;;9.93;5.20;;;;;;;;;;4899887;29;20044;-70
2021/01/07 09:55:49;;;;;;;8.90;5.20;;;;;;;;;;4886952;29;20076;-70
2021/01/07 09:58:16;;;;;;;8.07;5.07;;;;;;;;;;4892670;29;20532;-70
2021/01/07 10:00:42;;;;;;;7.68;4.88;;;;;;;;;;4895071;29;20136;-70
2021/01/07 10:03:09;;;;;;;7.00;4.83;;;;;;;;;;4895885;29;20050;-70
2021/01/07 10:05:35;;;;;;;8.55;4.88;;;;;;;;;;4890310;29;20064;-70
2021/01/07 10:08:01;;;;;;;8.30;4.85;;;;;;;;;;4900271;29;20047;-70
2021/01/07 10:10:27;;;;;;;7.85;4.70;;;;;;;;;;4891896;29;20053;-70
2021/01/07 10:12:53;;;;;;;7.28;5.45;;;;;;;;;;4893374;29;20044;-70
2021/01/07 10:15:19;;;;;;;7.85;4.93;;;;;;;;;;4893174;29;20044;-70
2021/01/07 10:17:46;;;;;;;9.77;4.95;;;;;;;;;;4887932;29;20078;-68
2021/01/07 10:20:12;;;;;;;9.52;5.25;;;;;;;;;;4889437;29;20048;-68
2021/01/07 10:22:38;;;;;;;6.53;4.75;;;;;;;;;;4890130;29;20108;-68
2021/01/07 10:25:06;;;;;;;7.32;4.65;;;;;;;;;;4891252;29;20048;-69
2021/01/07 10:27:32;;;;;;;8.90;4.63;;;;;;;;;;4890864;29;20562;-68
2021/01/07 10:29:59;;;;;;;5.35;3.17;;;;;;;;;;4895501;29;20052;-68
2021/01/07 10:32:25;;;;;;;7.80;5.25;;;;;;;;;;4894632;29;20085;-68
2021/01/07 10:34:51;;;;;;;9.18;4.82;;;;;;;;;;4893929;29;20052;-69
2021/01/07 10:37:18;;;;;;;7.47;4.90;;;;;;;;;;4887524;29;20052;-68
2021/01/07 10:39:45;;;;;;;4.72;3.47;;;;;;;;;;4888284;29;20140;-68
2021/01/07 10:42:12;;;;;;;7.38;4.85;;;;;;;;;;4895495;29;20044;-68
2021/01/07 10:44:39;;;;;;;7.35;4.95;;;;;;;;;;4895494;29;20053;-68
2021/01/07 10:47:07;;;;;;;10.05;5.60;;;;;;;;;;4891712;29;20052;-68
2021/01/07 10:49:34;;;;;;;7.82;4.90;;;;;;;;;;4891477;29;20072;-68
2021/01/07 10:52:13;;;;;;;5.43;3.88;;;;;;;;;;4874951;29;20056;-68
2021/01/07 10:54:52;;;;;;;8.00;5.05;;;;;;;;;;4888903;29;20489;-68
2021/01/07 10:57:37;;;;;;;8.57;4.95;;;;;;;;;;4892845;29;20076;-68
2021/01/07 11:00:05;;;;;;;8.38;4.90;;;;;;;;;;4894279;29;20037;-68
2021/01/07 11:02:32;;;;;;;10.90;5.78;;;;;;;;;;4889643;29;20048;-68
2021/01/07 11:05:03;;;;;;;8.57;4.70;;;;;;;;;;4892862;29;20531;-68
2021/01/07 11:07:30;;;;;;;7.13;4.78;;;;;;;;;;4890932;29;20045;-68
2021/01/07 11:10:01;;;;;;;7.45;5.13;;;;;;;;;;4893198;29;20132;-68
2021/01/07 11:12:30;;;;;;;7.43;5.25;;;;;;;;;;4890330;29;20571;-68
2021/01/07 11:15:06;;;;;;;6.97;5.30;;;;;;;;;;4889441;29;20486;-68
2021/01/07 11:17:34;;;;;;;9.45;5.10;;;;;;;;;;4890223;29;20041;-68
2021/01/07 11:20:02;;;;;;;8.38;4.93;;;;;;;;;;4889880;29;20136;-68
2021/01/07 11:22:29;;;;;;;7.50;5.10;;;;;;;;;;4892850;29;20048;-68
2021/01/07 11:24:57;;;;;;;10.98;5.05;;;;;;;;;;4888179;29;20453;-68
2021/01/07 11:27:24;;;;;;;8.15;5.00;;;;;;;;;;4893390;29;20045;-68
2021/01/07 11:29:51;;;;;;;6.00;4.03;;;;;;;;;;4890707;29;20052;-68
2021/01/07 11:32:17;;;;;;;7.68;5.13;;;;;;;;;;4891210;29;20286;-68
2021/01/07 11:34:46;;;;;;;6.82;4.45;;;;;;;;;;4894308;29;20052;-68
2021/01/07 11:37:13;;;;;;;6.78;4.60;;;;;;;;;;4888960;29;20144;-68
2021/01/07 11:40:00;;;;;;;8.25;4.53;;;;;;;;;;4894504;29;20106;-68
2021/01/07 11:42:35;;;;;;;7.60;4.70;;;;;;;;;;4894019;29;20044;-68
2021/01/07 11:45:04;;;;;;;6.50;4.38;;;;;;;;;;4883561;29;20053;-68
2021/01/07 11:47:38;;;;;;;6.38;4.45;;;;;;;;;;4895113;29;20052;-68
2021/01/07 11:50:06;;;;;;;7.65;5.00;;;;;;;;;;4896523;29;20565;-68
2021/01/07 11:52:35;;;;;;;7.70;4.97;;;;;;;;;;4889059;29;20305;-68
2021/01/07 11:55:01;;;;;;;7.93;5.20;;;;;;;;;;4888361;29;20521;-69
2021/01/07 11:57:31;;;;;;;8.75;5.70;;;;;;;;;;4889524;29;20044;-68
2021/01/07 11:59:58;;;;;;;11.18;5.63;;;;;;;;;;4891906;29;20049;-68
2021/01/07 12:02:24;;;;;;;8.68;5.70;;;;;;;;;;4893059;29;20481;-69
2021/01/07 12:04:51;;;;;;;9.18;5.90;;;;;;;;;;4893930;29;20454;-68
2021/01/07 12:07:28;;;;;;;8.38;5.30;;;;;;;;;;4894128;29;20040;-68
2021/01/07 12:09:55;;;;;;;9.13;5.57;;;;;;;;;;4876588;29;20089;-68
2021/01/07 12:12:22;;;;;;;12.18;4.82;;;;;;;;;;4896671;29;20052;-68
2021/01/07 12:14:52;;;;;;;11.63;6.15;;;;;;;;;;4885499;29;20053;-68
2021/01/07 12:17:18;;;;;;;10.48;6.45;;;;;;;;;;4894545;29;20056;-68
2021/01/07 12:19:44;;;;;;;10.02;6.03;;;;;;;;;;4888710;29;20053;-68
2021/01/07 12:22:15;;;;;;;11.57;5.82;;;;;;;;;;4895239;29;20140;-68
2021/01/07 12:24:59;;;;;;;10.40;6.32;;;;;;;;;;4890719;29;20052;-68
2021/01/07 12:27:25;;;;;;;13.85;6.15;;;;;;;;;;4896151;29;20079;-68
2021/01/07 12:29:52;;;;;;;11.30;6.88;;;;;;;;;;4896064;29;20191;-68
2021/01/07 12:32:32;;;;;;;12.43;7.28;;;;;;;;;;4891925;29;20382;-68
2021/01/07 12:35:16;;;;;;;12.05;6.93;;;;;;;;;;4896489;29;20135;-68
2021/01/07 12:37:51;;;;;;;11.90;5.80;;;;;;;;;;4891620;29;20052;-68
2021/01/07 12:40:19;;;;;;;11.05;6.28;;;;;;;;;;4889760;29;20044;-68
2021/01/07 12:42:49;;;;;;;10.55;6.68;;;;;;;;;;4892623;29;20084;-68
2021/01/07 12:45:16;;;;;;;9.95;6.15;;;;;;;;;;4888470;29;20052;-68
2021/01/07 12:47:42;;;;;;;8.93;5.67;;;;;;;;;;4892939;29;20056;-68
2021/01/07 12:50:10;;;;;;;10.55;6.10;;;;;;;;;;4895042;29;20324;-68
2021/01/07 12:52:36;;;;;;;10.82;5.97;;;;;;;;;;4877269;29;20044;-68
2021/01/07 12:55:04;;;;;;;12.35;6.28;;;;;;;;;;4893462;29;20076;-68
2021/01/07 12:57:49;;;;;;;13.82;5.72;;;;;;;;;;4887787;29;20044;-68
2021/01/07 13:00:16;;;;;;;11.70;6.63;;;;;;;;;;4892660;29;20055;-68
2021/01/07 13:02:45;;;;;;;11.45;5.90;;;;;;;;;;4891603;29;20051;-68
2021/01/07 13:05:20;;;;;;;13.88;6.93;;;;;;;;;;4894297;29;20497;-69
2021/01/07 13:07:47;;;;;;;11.20;6.00;;;;;;;;;;4891329;29;20052;-68
2021/01/07 13:10:14;;;;;;;13.95;7.40;;;;;;;;;;4893854;29;20053;-68
2021/01/07 13:12:41;;;;;;;12.00;6.35;;;;;;;;;;4895459;29;20044;-68
2021/01/07 13:15:08;;;;;;;10.60;6.65;;;;;;;;;;4890049;29;20045;-68
2021/01/07 13:17:35;;;;;;;;;;;;;;;;;;4891194;29;20053;-68
2021/01/07 13:20:02;;;;;;;12.20;6.35;;;;;;;;;;4895159;29;19927;-68
2021/01/07 13:22:29;;;;;;;10.30;6.30;;;;;;;;;;4893362;29;20068;-68
2021/01/07 13:24:57;;;;;;;12.23;6.90;;;;;;;;;;4895337;29;20048;-68
2021/01/07 13:27:22;;;;;;;;;;;;;;;;;;4893970;29;20036;-68
2021/01/07 13:29:49;;;;;;;12.30;6.35;;;;;;;;;;4894323;29;20313;-68
2021/01/07 13:32:16;;;;;;;12.68;6.65;;;;;;;;;;4895484;29;20114;-68
2021/01/07 13:34:42;;;;;;;10.50;6.32;;;;;;;;;;4887931;29;20056;-68
2021/01/07 13:37:15;;;;;;;10.37;6.37;;;;;;;;;;4892096;29;20053;-68
2021/01/07 13:39:42;;;;;;;10.35;6.07;;;;;;;;;;4894646;29;20049;-68
2021/01/07 13:42:09;;;;;;;8.98;4.93;;;;;;;;;;4895263;29;20044;-68
2021/01/07 13:44:35;;;;;;;10.10;6.25;;;;;;;;;;4895229;29;20523;-69
2021/01/07 13:47:02;;;;;;;13.73;6.45;;;;;;;;;;4890386;29;20047;-69
2021/01/07 13:49:30;;;;;;;13.13;6.75;;;;;;;;;;4895190;29;20580;-69
2021/01/07 13:51:57;;;;;;;12.80;7.15;;;;;;;;;;4895205;29;20053;-68
2021/01/07 13:54:24;;;;;;;12.05;6.63;;;;;;;;;;4894236;29;20058;-68
2021/01/07 13:56:51;;;;;;;8.35;4.53;;;;;;;;;;4894851;29;20053;-68
2021/01/07 13:59:17;;;;;;;12.50;7.70;;;;;;;;;;4892951;29;20500;-69
2021/01/07 14:01:43;;;;;;;11.13;6.68;;;;;;;;;;4896858;29;20045;-69
2021/01/07 14:04:10;;;;;;;13.55;6.68;;;;;;;;;;4897305;29;20053;-69
2021/01/07 14:06:36;;;;;;;11.18;6.45;;;;;;;;;;4893582;29;20157;-69
2021/01/07 14:09:07;;;;;;;12.98;6.63;;;;;;;;;;4898308;29;20542;-69
2021/01/07 14:11:35;;;;;;;15.30;6.78;;;;;;;;;;4896798;29;20048;-69
2021/01/07 14:14:05;;;;;;;11.30;6.75;;;;;;;;;;4899198;29;20052;-69
2021/01/07 14:16:31;;;;;;;13.05;7.68;;;;;;;;;;4898764;29;20069;-69
2021/01/07 14:18:59;;;;;;;13.60;7.55;;;;;;;;;;4898701;29;20573;-69
2021/01/07 14:21:26;;;;;;;19.23;7.10;;;;;;;;;;4897020;29;20467;-69
2021/01/07 14:23:52;;;;;;;9.77;6.10;;;;;;;;;;4898531;29;20509;-69
2021/01/07 14:26:18;;;;;;;16.33;6.70;;;;;;;;;;4897533;29;20064;-69
2021/01/07 14:28:51;;;;;;;13.30;7.57;;;;;;;;;;4898926;29;20049;-69
2021/01/07 14:31:19;;;;;;;14.60;7.88;;;;;;;;;;4898631;29;20501;-69
2021/01/07 14:33:48;;;;;;;13.43;7.43;;;;;;;;;;4893461;29;20048;-69
2021/01/07 14:36:15;;;;;;;12.60;8.20;;;;;;;;;;4891679;29;20592;-69
2021/01/07 14:38:41;;;;;;;14.70;7.05;;;;;;;;;;4898266;29;20036;-68
2021/01/07 14:41:08;;;;;;;13.68;7.28;;;;;;;;;;4881458;29;20052;-69
2021/01/07 14:43:34;;;;;;;12.93;7.03;;;;;;;;;;4897925;29;20501;-69